Time;durP1;ratioP1;P1;durP2;ratioP2;P2;SDS_P1;SDS_P2;PMS_P1;PMS_P2;Temp;Humidity;BMP_temperature;BMP_pressure;BME280_temperature;BME280_humidity;BME280_pressure;Samples;Min_cycle;Max_cycle;Signal;HPM_P1;HPM_P2
2023/10/24 00:01:39;;;;;;;;;;;;;;;13.69;51.71;100157.97;4966214;27;98083;-71
2023/10/24 00:04:05;;;;;;;;;;;;;;;13.69;51.55;100144.44;4965663;27;98220;-72
2023/10/24 00:06:31;;;;;;;;;;;;;;;13.70;51.50;100143.34;4981755;27;99355;-72
2023/10/24 00:08:58;;;;;;;;;;;;;;;13.70;51.32;100127.09;4985602;27;99361;-71
2023/10/24 00:11:24;;;;;;;;;;;;;;;13.70;51.49;100135.22;5000185;27;98848;-72
2023/10/24 00:13:50;;;;;;;;;;;;;;;13.70;51.55;100132.50;4970364;27;98362;-72
2023/10/24 00:16:17;;;;;;;;;;;;;;;13.68;51.36;100138.22;4979269;27;98396;-72
2023/10/24 00:18:43;;;;;;;;;;;;;;;13.69;51.36;100128.19;4984986;27;98126;-72
2023/10/24 00:21:09;;;;;;;;;;;;;;;13.68;51.59;100126.59;4981957;27;98206;-72
2023/10/24 00:23:36;;;;;;;;;;;;;;;13.69;51.31;100137.13;4999455;27;98394;-72
2023/10/24 00:26:02;;;;;;;;;;;;;;;13.68;51.58;100118.47;4988437;27;99585;-72
2023/10/24 00:28:29;;;;;;;;;;;;;;;13.68;51.37;100124.69;4999878;27;108422;-72
2023/10/24 00:30:56;;;;;;;;;;;;;;;13.68;51.71;100104.91;5000904;27;98040;-72
2023/10/24 00:33:23;;;;;;;;;;;;;;;13.68;51.43;100107.63;4962494;27;98383;-72
2023/10/24 00:35:49;;;;;;;;;;;;;;;13.67;51.61;100095.97;4979073;27;98073;-72
2023/10/24 00:38:15;;;;;;;;;;;;;;;13.67;51.46;100093.25;4984085;27;98328;-73
2023/10/24 00:40:42;;;;;;;;;;;;;;;13.67;51.46;100087.84;4998673;27;101257;-73
2023/10/24 00:43:09;;;;;;;;;;;;;;;13.67;51.46;100093.25;4986093;27;98121;-71
2023/10/24 00:45:36;;;;;;;;;;;;;;;13.66;51.65;100080.81;4966117;27;98173;-71
2023/10/24 00:48:03;;;;;;;;;;;;;;;13.64;51.48;100072.22;4997250;27;98058;-71
2023/10/24 00:50:30;;;;;;;;;;;;;;;13.65;51.78;100073.81;4996661;27;98055;-73
2023/10/24 00:52:56;;;;;;;;;;;;;;;13.65;51.43;100073.00;4982006;27;98103;-73
2023/10/24 00:55:23;;;;;;;;;;;;;;;13.65;51.32;100075.72;5013512;27;98250;-72
2023/10/24 00:57:50;;;;;;;;;;;;;;;13.64;51.61;100082.25;4980991;27;98304;-71
2023/10/24 01:00:16;;;;;;;;;;;;;;;13.64;51.56;100079.53;4982230;27;99690;-72
2023/10/24 01:02:43;;;;;;;;;;;;;;;13.64;51.62;100066.00;4999734;27;98608;-73
2023/10/24 01:05:09;;;;;;;;;;;;;;;13.63;51.60;100056.25;4973148;27;99222;-72
2023/10/24 01:07:36;;;;;;;;;;;;;;;13.63;51.48;100058.94;5011193;27;100172;-72
2023/10/24 01:10:03;;;;;;;;;;;;;;;13.63;51.38;100054.31;4982245;27;98524;-73
2023/10/24 01:12:29;;;;;;;;;;;;;;;13.62;51.63;100051.94;4962297;27;98462;-73
2023/10/24 01:14:56;;;;;;;;;;;;;;;13.62;51.65;100055.44;4995369;27;99245;-73
2023/10/24 01:17:22;;;;;;;;;;;;;;;13.62;51.71;100060.06;4961005;27;98207;-73
2023/10/24 01:19:48;;;;;;;;;;;;;;;13.62;51.43;100060.06;4985079;27;98236;-74
2023/10/24 01:22:14;;;;;;;;;;;;;;;13.62;51.77;100058.16;4968485;27;98274;-74
2023/10/24 01:24:41;;;;;;;;;;;;;;;13.62;51.73;100062.75;4979267;27;97818;-72
2023/10/24 01:27:08;;;;;;;;;;;;;;;13.61;51.86;100053.03;4986867;27;98644;-74
2023/10/24 01:29:35;;;;;;;;;;;;;;;13.62;51.43;100054.63;4977157;27;99737;-74
2023/10/24 01:32:01;;;;;;;;;;;;;;;13.61;51.63;100053.03;4982271;27;98123;-74
2023/10/24 01:34:27;;;;;;;;;;;;;;;13.61;51.55;100050.31;4965909;27;98108;-74
2023/10/24 01:36:54;;;;;;;;;;;;;;;13.61;51.81;100044.91;4987870;27;99533;-74
2023/10/24 01:39:21;;;;;;;;;;;;;;;13.59;51.82;100053.31;4983657;27;98058;-72
2023/10/24 01:41:47;;;;;;;;;;;;;;;13.61;51.92;100050.31;4966794;27;98984;-72
2023/10/24 01:44:13;;;;;;;;;;;;;;;13.59;51.77;100045.19;4987169;27;99504;-72
2023/10/24 01:46:39;;;;;;;;;;;;;;;13.59;51.86;100045.19;4982653;27;98067;-74
2023/10/24 01:49:06;;;;;;;;;;;;;;;13.59;51.67;100047.91;5014508;27;100425;-74
2023/10/24 01:51:35;;;;;;;;;;;;;;;13.58;51.58;100037.38;4994792;27;99956;-74
2023/10/24 01:54:01;;;;;;;;;;;;;;;13.57;51.85;100043.91;4999176;27;101461;-71
2023/10/24 01:56:27;;;;;;;;;;;;;;;13.57;51.88;100049.31;4961487;27;98202;-71
2023/10/24 01:58:54;;;;;;;;;;;;;;;13.57;51.80;100046.63;4985210;27;99826;-71
2023/10/24 02:01:20;;;;;;;;;;;;;;;13.57;51.52;100052.81;4987668;27;98672;-74
2023/10/24 02:03:47;;;;;;;;;;;;;;;13.57;51.62;100043.91;4981084;27;98339;-71
2023/10/24 02:06:13;;;;;;;;;;;;;;;13.56;51.93;100040.41;4963804;27;98782;-71
2023/10/24 02:08:39;;;;;;;;;;;;;;;13.56;51.45;100037.69;4981330;27;99664;-74
2023/10/24 02:11:06;;;;;;;;;;;;;;;13.56;51.55;100028.72;4994727;27;98087;-74
2023/10/24 02:13:32;;;;;;;;;;;;;;;13.55;51.52;100017.09;5013331;27;98785;-74
2023/10/24 02:15:58;;;;;;;;;;;;;;;13.55;51.79;100013.59;4997191;27;99704;-75
2023/10/24 02:18:24;;;;;;;;;;;;;;;13.55;51.55;100010.88;4981348;27;98080;-75
2023/10/24 02:20:51;;;;;;;;;;;;;;;13.56;51.65;100031.44;4998298;27;100180;-75
2023/10/24 02:23:18;;;;;;;;;;;;;;;13.55;51.50;100027.94;4963494;27;99655;-74
2023/10/24 02:25:45;;;;;;;;;;;;;;;13.55;51.50;100030.66;4980281;27;98117;-71
2023/10/24 02:28:12;;;;;;;;;;;;;;;13.54;51.54;100031.75;4984191;27;98077;-75
2023/10/24 02:30:39;;;;;;;;;;;;;;;13.53;51.65;100022.03;4999134;27;98190;-75
2023/10/24 02:33:05;;;;;;;;;;;;;;;13.54;51.47;100033.66;4979461;27;99028;-71
2023/10/24 02:35:32;;;;;;;;;;;;;;;13.54;51.76;100012.00;4995875;27;98593;-69
2023/10/24 02:37:58;;;;;;;;;;;;;;;13.53;51.74;100019.31;4994420;27;98077;-75
2023/10/24 02:40:25;;;;;;;;;;;;;;;13.52;51.53;99998.78;4981999;27;98874;-74
2023/10/24 02:42:52;;;;;;;;;;;;;;;13.52;51.60;99998.78;4993907;27;101366;-75
2023/10/24 02:45:18;;;;;;;;;;;;;;;13.52;51.71;100004.19;5010664;27;99257;-71
2023/10/24 02:47:46;;;;;;;;;;;;;;;13.51;51.75;100006.06;4963642;27;98176;-74
2023/10/24 02:50:12;;;;;;;;;;;;;;;13.52;51.92;100023.13;4960878;27;97997;-74
2023/10/24 02:52:39;;;;;;;;;;;;;;;13.52;51.64;100020.44;4979569;27;99702;-72
2023/10/24 02:55:07;;;;;;;;;;;;;;;13.51;51.49;100014.19;4982154;27;98167;-71
2023/10/24 02:57:33;;;;;;;;;;;;;;;13.51;51.67;100006.06;4977672;27;98346;-74
2023/10/24 03:00:00;;;;;;;;;;;;;;;13.51;51.54;99991.72;4981966;27;98182;-74
2023/10/24 03:02:27;;;;;;;;;;;;;;;13.50;51.80;99987.41;4981132;27;98181;-75
2023/10/24 03:04:54;;;;;;;;;;;;;;;13.51;51.83;99970.06;4969652;27;98074;-74
2023/10/24 03:07:20;;;;;;;;;;;;;;;13.50;51.57;99954.94;4967782;27;98411;-71
2023/10/24 03:09:46;;;;;;;;;;;;;;;13.50;51.84;99950.31;4979943;27;99595;-71
2023/10/24 03:12:13;;;;;;;;;;;;;;;13.49;51.94;99956.03;5011957;27;98509;-71
2023/10/24 03:14:40;;;;;;;;;;;;;;;13.50;51.93;99971.19;4999980;27;98199;-71
2023/10/24 03:17:06;;;;;;;;;;;;;;;13.48;51.97;99976.91;4977518;27;98166;-71
2023/10/24 03:19:34;;;;;;;;;;;;;;;13.49;51.52;99983.13;4987058;27;98483;-75
2023/10/24 03:22:00;;;;;;;;;;;;;;;13.48;51.92;99976.09;4987053;27;98644;-71
2023/10/24 03:24:28;;;;;;;;;;;;;;;13.48;51.72;99976.91;4972744;27;97966;-74
2023/10/24 03:26:55;;;;;;;;;;;;;;;13.49;51.69;99981.19;4965765;27;98010;-74
2023/10/24 03:29:22;;;;;;;;;;;;;;;13.48;51.83;99966.06;4985363;27;100184;-70
2023/10/24 03:31:50;;;;;;;;;;;;;;;13.48;51.96;99955.25;4971034;27;100480;-75
2023/10/24 03:34:16;;;;;;;;;;;;;;;13.48;51.76;99952.53;4983536;27;99951;-74
2023/10/24 03:36:42;;;;;;;;;;;;;;;13.47;51.74;99941.97;4982774;27;101510;-75
2023/10/24 03:39:08;;;;;;;;;;;;;;;13.48;51.83;99957.16;4986285;27;98305;-70
2023/10/24 03:41:35;;;;;;;;;;;;;;;13.47;51.83;99941.97;4999919;27;98839;-71
2023/10/24 03:44:01;;;;;;;;;;;;;;;13.48;51.95;99943.59;4987162;27;98470;-75
2023/10/24 03:46:28;;;;;;;;;;;;;;;13.46;51.90;99938.47;4985771;27;98416;-75
2023/10/24 03:48:57;;;;;;;;;;;;;;;13.47;51.60;99936.56;4986093;27;98599;-71
2023/10/24 03:51:24;;;;;;;;;;;;;;;13.47;51.82;99952.81;4970579;27;99735;-71
2023/10/24 03:53:50;;;;;;;;;;;;;;;13.46;51.81;99948.50;4972513;27;98037;-71
2023/10/24 03:56:17;;;;;;;;;;;;;;;13.46;51.92;99949.31;4986211;27;98083;-70
2023/10/24 03:58:44;;;;;;;;;;;;;;;13.45;51.68;99936.06;4971167;27;98283;-75
2023/10/24 04:01:10;;;;;;;;;;;;;;;13.46;51.99;99941.19;4984133;27;98008;-74
2023/10/24 04:03:37;;;;;;;;;;;;;;;13.45;51.84;99936.88;5012211;27;98154;-71
2023/10/24 04:06:08;;;;;;;;;;;;;;;13.43;51.78;99936.34;4990893;27;98875;-71
2023/10/24 04:08:34;;;;;;;;;;;;;;;13.45;51.89;99938.78;4951541;27;100008;-70
2023/10/24 04:11:00;;;;;;;;;;;;;;;13.43;52.02;99927.44;4994553;27;99023;-75
2023/10/24 04:13:26;;;;;;;;;;;;;;;13.44;51.58;99929.88;4966654;27;98067;-69
2023/10/24 04:15:59;;;;;;;;;;;;;;;13.44;51.70;99935.28;4957386;28;101272;-69
2023/10/24 04:18:26;;;;;;;;;;;;;;;13.43;52.02;99949.91;4980763;27;98022;-68
2023/10/24 04:20:53;;;;;;;;;;;;;;;13.43;51.75;99952.59;4967892;27;99199;-74
2023/10/24 04:23:20;;;;;;;;;;;;;;;13.43;51.83;99955.31;4982743;27;98164;-70
2023/10/24 04:25:46;;;;;;;;;;;;;;;13.43;51.99;99958.00;4964588;27;99196;-74
2023/10/24 04:28:12;;;;;;;;;;;;;;;13.44;51.78;99961.53;4965583;27;98941;-74
2023/10/24 04:30:40;;;;;;;;;;;;;;;13.42;52.04;99955.63;4966254;27;98474;-70
2023/10/24 04:33:09;;;;;;;;;;;;;;;13.42;51.62;99948.28;4966084;27;108667;-69
2023/10/24 04:35:47;;;;;;;;;;;;;;;13.42;51.76;99947.50;4969803;27;98236;-74
2023/10/24 04:38:14;;;;;;;;;;;;;;;13.43;51.80;99947.19;4970064;27;101986;-70
2023/10/24 04:40:41;;;;;;;;;;;;;;;13.42;52.07;99942.88;4979780;27;98348;-74
2023/10/24 04:43:08;;;;;;;;;;;;;;;13.41;51.68;99938.56;4977673;27;98312;-74
2023/10/24 04:45:36;;;;;;;;;;;;;;;13.42;52.13;99932.06;4963794;27;97933;-74
2023/10/24 04:48:05;;;;;;;;;;;;;;;13.42;51.98;99925.84;4956950;27;99036;-75
2023/10/24 04:50:34;;;;;;;;;;;;;;;13.41;52.05;99911.50;4983131;27;98240;-70
2023/10/24 04:53:01;;;;;;;;;;;;;;;13.41;51.84;99900.69;4960694;27;98118;-70
2023/10/24 04:55:28;;;;;;;;;;;;;;;13.40;52.17;99893.66;4975303;27;97886;-75
2023/10/24 04:57:55;;;;;;;;;;;;;;;13.41;51.64;99897.16;4949351;28;98055;-69
2023/10/24 05:00:24;;;;;;;;;;;;;;;13.40;51.86;99899.09;4956328;28;98816;-69
2023/10/24 05:02:51;;;;;;;;;;;;;;;13.40;51.94;99882.84;4952435;27;100000;-71
2023/10/24 05:05:18;;;;;;;;;;;;;;;13.40;51.66;99871.19;4956776;28;98036;-75
2023/10/24 05:07:45;;;;;;;;;;;;;;;13.39;51.82;99880.41;4963580;27;98769;-69
2023/10/24 05:10:12;;;;;;;;;;;;;;;13.40;51.78;99873.88;4967604;27;100990;-70
2023/10/24 05:12:39;;;;;;;;;;;;;;;13.39;51.87;99867.69;4999221;27;99317;-75
2023/10/24 05:15:06;;;;;;;;;;;;;;;13.39;51.71;99867.69;4958458;27;99041;-70
2023/10/24 05:17:33;;;;;;;;;;;;;;;13.38;52.12;99868.78;4944116;27;101611;-75
2023/10/24 05:20:03;;;;;;;;;;;;;;;13.37;52.12;99872.59;4929755;27;98129;-70
2023/10/24 05:22:31;;;;;;;;;;;;;;;13.38;51.80;99868.78;4948363;27;98229;-74
2023/10/24 05:24:58;;;;;;;;;;;;;;;13.38;51.90;99859.88;4962781;27;99585;-69
2023/10/24 05:27:26;;;;;;;;;;;;;;;13.38;51.88;99854.44;4931004;27;99481;-75
2023/10/24 05:29:52;;;;;;;;;;;;;;;13.37;51.79;99860.97;4947868;27;98753;-75
2023/10/24 05:32:20;;;;;;;;;;;;;;;13.37;51.80;99867.19;4953591;27;98489;-74
2023/10/24 05:34:47;;;;;;;;;;;;;;;13.37;52.14;99861.78;4989666;27;98371;-70
2023/10/24 05:37:13;;;;;;;;;;;;;;;13.37;52.25;99858.28;4944380;28;98048;-75
2023/10/24 05:39:39;;;;;;;;;;;;;;;13.37;51.71;99859.06;4959545;27;98673;-69
2023/10/24 05:42:06;;;;;;;;;;;;;;;13.37;51.77;99863.69;4962322;27;98006;-75
2023/10/24 05:44:33;;;;;;;;;;;;;;;13.37;51.90;99859.06;4951281;27;98466;-70
2023/10/24 05:46:59;;;;;;;;;;;;;;;13.38;52.09;99852.53;4938986;28;100357;-69
2023/10/24 05:49:26;;;;;;;;;;;;;;;13.36;51.73;99846.66;4943747;28;97876;-75
2023/10/24 05:51:52;;;;;;;;;;;;;;;13.37;51.75;99847.44;4920489;27;99907;-69
2023/10/24 05:54:19;;;;;;;;;;;;;;;13.37;51.69;99839.31;4957676;28;98352;-74
2023/10/24 05:56:46;;;;;;;;;;;;;;;13.37;51.71;99834.72;4930007;27;99427;-70
2023/10/24 05:59:12;;;;;;;;;;;;;;;13.37;51.95;99831.19;4924310;27;98051;-74
2023/10/24 06:01:39;;;;;;;;;;;;;;;13.38;52.13;99830.09;4968565;28;98456;-69
2023/10/24 06:04:06;;;;;;;;;;;;;;;13.38;52.06;99830.09;4958772;27;98243;-74
2023/10/24 06:06:33;;;;;;;;;;;;;;;13.37;51.76;99837.41;4959093;27;100574;-74
2023/10/24 06:08:59;;;;;;;;;;;;;;;13.38;52.12;99840.91;4954527;27;98170;-69
2023/10/24 06:11:26;;;;;;;;;;;;;;;13.38;51.96;99843.63;4927344;27;98705;-69
2023/10/24 06:13:52;;;;;;;;;;;;;;;13.38;52.08;99849.84;4942806;28;98100;-69
2023/10/24 06:16:20;;;;;;;;;;;;;;;13.38;51.83;99844.41;4923285;28;98290;-74
2023/10/24 06:18:47;;;;;;;;;;;;;;;13.40;52.13;99847.66;4944474;28;98214;-69
2023/10/24 06:21:15;;;;;;;;;;;;;;;13.41;52.14;99846.53;4936887;28;99413;-74
2023/10/24 06:23:42;;;;;;;;;;;;;;;13.43;51.84;99851.63;4944283;28;98141;-74
2023/10/24 06:26:13;;;;;;;;;;;;;;;13.45;51.76;99854.84;4908939;28;99097;-74
2023/10/24 06:28:39;;;;;;;;;;;;;;;13.48;51.66;99854.25;4923566;27;99178;-69
2023/10/24 06:31:06;;;;;;;;;;;;;;;13.50;51.82;99847.44;4939053;27;98509;-74
2023/10/24 06:33:32;;;;;;;;;;;;;;;13.51;51.67;99843.59;4946417;27;97973;-74
2023/10/24 06:35:59;;;;;;;;;;;;;;;13.54;51.66;99841.41;4936669;27;101280;-69
2023/10/24 06:38:26;;;;;;;;;;;;;;;13.56;51.72;99840.03;4930729;27;98074;-74
2023/10/24 06:40:55;;;;;;;;;;;;;;;13.57;51.61;99836.19;4955859;27;98384;-70
2023/10/24 06:43:22;;;;;;;;;;;;;;;13.59;51.64;99831.28;4956711;27;98179;-74
2023/10/24 06:45:48;;;;;;;;;;;;;;;13.62;51.55;99829.88;4941054;27;98192;-75
2023/10/24 06:48:15;;;;;;;;;;;;;;;13.64;51.67;99836.59;4938237;28;98339;-70
2023/10/24 06:50:41;;;;;;;;;;;;;;;13.67;51.53;99833.25;4975748;27;98756;-69
2023/10/24 06:53:09;;;;;;;;;;;;;;;13.71;51.69;99822.63;4950255;27;98382;-68
2023/10/24 06:55:37;;;;;;;;;;;;;;;13.75;51.90;99827.16;4932100;27;100056;-74
2023/10/24 06:58:05;;;;;;;;;;;;;;;13.79;51.49;99818.41;4930896;27;98202;-75
2023/10/24 07:00:32;;;;;;;;;;;;;;;13.83;51.70;99812.06;4959605;27;99690;-70
2023/10/24 07:02:59;;;;;;;;;;;;;;;13.86;51.36;99799.84;4959296;27;99681;-74
2023/10/24 07:05:26;;;;;;;;;;;;;;;13.91;51.75;99808.66;4963693;27;100540;-70
2023/10/24 07:07:53;;;;;;;;;;;;;;;13.96;51.79;99805.03;4963748;27;98651;-74
2023/10/24 07:10:20;;;;;;;;;;;;;;;14.01;51.46;99804.91;4932060;28;98462;-69
2023/10/24 07:12:47;;;;;;;;;;;;;;;14.07;51.35;99811.00;4930959;27;98087;-74
2023/10/24 07:15:14;;;;;;;;;;;;;;;14.11;51.55;99812.81;4936120;27;98003;-75
2023/10/24 07:17:40;;;;;;;;;;;;;;;14.16;51.45;99807.28;4953869;27;97936;-70
2023/10/24 07:20:07;;;;;;;;;;;;;;;14.23;51.29;99799.53;4930103;27;98472;-75
2023/10/24 07:22:33;;;;;;;;;;;;;;;14.32;51.22;99799.59;4946595;27;98576;-70
2023/10/24 07:24:59;;;;;;;;;;;;;;;14.42;51.33;99787.69;4937907;27;98965;-70
2023/10/24 07:27:25;;;;;;;;;;;;;;;14.53;51.37;99780.94;4955218;28;99296;-68
2023/10/24 07:29:51;;;;;;;;;;;;;;;14.64;50.97;99770.63;4945618;27;98068;-74
2023/10/24 07:32:18;;;;;;;;;;;;;;;14.77;50.85;99763.50;4075745;28;10000712;-69
2023/10/24 07:34:46;;;;;;;;;;;;;;;14.88;50.93;99752.06;4944252;27;100723;-70
2023/10/24 07:37:13;;;;;;;;;;;;;;;15.05;50.89;99747.81;4948670;27;98289;-68
2023/10/24 07:39:39;;;;;;;;;;;;;;;15.20;50.88;99731.09;4948954;27;97970;-75
2023/10/24 07:42:08;;;;;;;;;;;;;;;15.40;50.63;99722.34;4938623;28;98193;-70
2023/10/24 07:44:35;;;;;;;;;;;;;;;15.61;50.57;99719.84;4954921;27;99108;-75
2023/10/24 07:47:02;;;;;;;;;;;;;;;15.81;50.20;99721.16;4948801;28;98384;-69
2023/10/24 07:49:28;;;;;;;;;;;;;;;16.05;50.13;99720.66;4945406;27;98236;-68
2023/10/24 07:51:55;;;;;;;;;;;;;;;16.44;49.91;99711.47;4959835;27;98399;-75
2023/10/24 07:54:22;;;;;;;;;;;;;;;16.86;49.47;99702.72;4948515;27;98216;-75
2023/10/24 07:56:49;;;;;;;;;;;;;;;17.16;49.30;99698.84;4958518;27;98751;-70
2023/10/24 07:59:15;;;;;;;;;;;;;;;17.61;49.03;99705.63;4947536;27;98755;-69
2023/10/24 08:01:42;;;;;;;;;;;;;;;18.17;48.59;99706.13;4973062;27;99267;-75
2023/10/24 08:04:09;;;;;;;;;;;;;;;18.84;47.77;99704.91;4946431;28;98018;-75
2023/10/24 08:06:35;;;;;;;;;;;;;;;19.49;47.41;99718.63;4944435;27;98660;-75
2023/10/24 08:09:02;;;;;;;;;;;;;;;19.93;47.40;99720.69;4958552;27;98202;-70
2023/10/24 08:11:28;;;;;;;;;;;;;;;20.18;47.39;99721.38;4940301;28;98362;-70
2023/10/24 08:13:55;;;;;;;;;;;;;;;20.33;47.59;99732.34;4948506;27;117949;-75
2023/10/24 08:16:22;;;;;;;;;;;;;;;20.31;47.99;99734.63;4974027;27;98467;-70
2023/10/24 08:18:49;;;;;;;;;;;;;;;20.05;48.44;99731.59;4961407;27;98324;-75
2023/10/24 08:21:16;;;;;;;;;;;;;;;19.83;48.85;99733.69;4942489;27;98697;-69
2023/10/24 08:23:43;;;;;;;;;;;;;;;19.60;49.30;99749.78;4964383;28;98798;-70
2023/10/24 08:26:10;;;;;;;;;;;;;;;19.41;49.61;99749.59;4973531;27;98415;-75
2023/10/24 08:28:36;;;;;;;;;;;;;;;19.24;49.63;99741.66;4946670;27;98032;-69
2023/10/24 08:31:02;;;;;;;;;;;;;;;19.07;49.87;99738.00;4943778;27;100653;-69
2023/10/24 08:33:29;;;;;;;;;;;;;;;18.91;50.12;99723.44;4970386;27;98817;-75
2023/10/24 08:35:56;;;;;;;;;;;;;;;18.76;50.35;99724.13;4063121;27;10000334;-75
2023/10/24 08:38:23;;;;;;;;;;;;;;;18.64;50.39;99719.41;4959679;27;98279;-75
2023/10/24 08:40:49;;;;;;;;;;;;;;;18.53;50.37;99727.22;4961142;27;98210;-69
2023/10/24 08:43:18;;;;;;;;;;;;;;;18.45;50.44;99722.66;4945286;27;98469;-75
2023/10/24 08:45:45;;;;;;;;;;;;;;;18.39;50.54;99724.00;4972787;27;98309;-70
2023/10/24 08:48:11;;;;;;;;;;;;;;;18.35;50.44;99736.72;4974470;27;98038;-75
2023/10/24 08:50:40;;;;;;;;;;;;;;;18.36;50.42;99727.44;4959997;27;99977;-75
2023/10/24 08:53:07;;;;;;;;;;;;;;;18.42;50.54;99722.53;4942889;27;98163;-70
2023/10/24 08:55:33;;;;;;;;;;;;;;;18.46;50.34;99710.59;4980823;27;98261;-69
2023/10/24 08:57:59;;;;;;;;;;;;;;;18.51;50.39;99709.59;4939116;27;98150;-75
2023/10/24 09:00:27;;;;;;;;;;;;;;;18.57;50.23;99705.53;4974779;27;98408;-75
2023/10/24 09:02:53;;;;;;;;;;;;;;;18.63;50.25;99696.00;4959805;27;98079;-75
2023/10/24 09:05:20;;;;;;;;;;;;;;;18.60;50.37;99694.72;4959745;27;98432;-75
2023/10/24 09:07:46;;;;;;;;;;;;;;;18.59;50.28;99687.69;4962641;27;97976;-69
2023/10/24 09:10:12;;;;;;;;;;;;;;;18.60;50.27;99683.81;4973975;27;98105;-75
2023/10/24 09:12:39;;;;;;;;;;;;;;;18.65;50.16;99690.97;4946066;27;103070;-75
2023/10/24 09:15:09;;;;;;;;;;;;;;;18.67;50.27;99693.34;4979164;27;98739;-75
2023/10/24 09:17:40;;;;;;;;;;;;;;;18.70;50.18;99689.94;4961649;27;97974;-68
2023/10/24 09:20:07;;;;;;;;;;;;;;;18.62;50.38;99697.91;4972223;27;98105;-69
2023/10/24 09:22:35;;;;;;;;;;;;;;;18.47;50.67;99704.03;4976684;27;99784;-69
2023/10/24 09:25:03;;;;;;;;;;;;;;;18.33;50.81;99700.81;4958288;27;99278;-75
2023/10/24 09:27:30;;;;;;;;;;;;;;;18.22;51.04;99705.09;4959603;27;98961;-68
2023/10/24 09:29:56;;;;;;;;;;;;;;;18.09;51.08;99718.69;4989992;27;98182;-68
2023/10/24 09:32:23;;;;;;;;;;;;;;;17.96;51.01;99733.44;4958273;28;101887;-75
2023/10/24 09:34:49;;;;;;;;;;;;;;;17.84;51.35;99736.06;4938738;27;98336;-69
2023/10/24 09:37:16;;;;;;;;;;;;;;;17.73;51.30;99743.03;4942222;27;98349;-75
2023/10/24 09:39:57;;;;;;;;;;;;;;;17.60;51.33;99748.41;4972773;27;98451;-70
2023/10/24 09:42:28;;;;;;;;;;;;;;;17.48;51.68;99744.81;4974479;27;98184;-70
2023/10/24 09:45:00;;;;;;;;;;;;;;;17.34;51.58;99740.41;4962311;27;99221;-75
2023/10/24 09:47:27;;;;;;;;;;;;;;;17.27;51.58;99739.34;4960825;27;98465;-74
2023/10/24 09:49:54;;;;;;;;;;;;;;;17.21;51.74;99727.03;4959980;28;98355;-70
2023/10/24 09:52:21;;;;;;;;;;;;;;;17.18;51.48;99709.44;4957281;27;98275;-74
2023/10/24 09:54:50;;;;;;;;;;;;;;;17.21;51.52;99710.69;4960046;27;99647;-69
2023/10/24 09:57:20;;;;;;;;;;;;;;;17.23;51.41;99679.28;4941683;27;99670;-70
2023/10/24 09:59:47;;;;;;;;;;;;;;;17.23;51.43;99673.03;4928587;28;98651;-75
2023/10/24 10:02:16;;;;;;;;;;;;;;;17.21;51.36;99670.63;4913665;28;98326;-69
2023/10/24 10:04:43;;;;;;;;;;;;;;;17.17;51.35;99677.88;4960373;28;98130;-70
2023/10/24 10:07:10;;;;;;;;;;;;;;;17.14;51.56;99664.94;4931198;28;98198;-74
2023/10/24 10:09:41;;;;;;;;;;;;;;;17.12;51.45;99659.78;4927904;28;101137;-75
2023/10/24 10:12:07;;;;;;;;;;;;;;;17.12;51.36;99648.13;4929505;28;98401;-75
2023/10/24 10:14:38;;;;;;;;;;;;;;;17.11;51.51;99644.59;4954568;27;99145;-70
2023/10/24 10:17:09;;;;;;;;;;;;;;;17.11;51.52;99646.53;4962465;27;99076;-74
2023/10/24 10:20:17;;;;;;;;;;;;;;;17.09;51.44;99648.75;4961677;27;98175;-69
2023/10/24 10:23:05;;;;;;;;;;;;;;;17.09;51.55;99648.75;4947438;27;98486;-75
2023/10/24 10:25:47;;;;;;;;;;;;;;;17.11;51.48;99651.97;4986146;27;98441;-75
2023/10/24 10:28:51;;;;;;;;;;;;;;;17.12;51.30;99654.34;4984860;27;98341;-75
2023/10/24 10:31:40;;;;;;;;;;;;;;;17.16;51.22;99657.22;4980301;27;98591;-69
2023/10/24 10:34:06;;;;;;;;;;;;;;;17.21;51.38;99650.78;4968768;27;99882;-75
2023/10/24 10:36:33;;;;;;;;;;;;;;;17.34;50.98;99636.13;4951578;27;98167;-75
2023/10/24 10:39:00;;;;;;;;;;;;;;;17.53;50.78;99635.66;4936400;27;97936;-70
2023/10/24 10:41:29;;;;;;;;;;;;;;;17.72;50.62;99638.66;4950671;27;98097;-70
2023/10/24 10:43:59;;;;;;;;;;;;;;;17.89;50.40;99629.56;4980599;27;98309;-70
2023/10/24 10:46:29;;;;;;;;;;;;;;;18.13;50.27;99623.38;4941779;27;99467;-70
2023/10/24 10:49:06;;;;;;;;;;;;;;;18.29;50.40;99631.72;4952230;27;98271;-69
2023/10/24 10:51:37;;;;;;;;;;;;;;;18.38;50.34;99638.63;4948866;27;98475;-69
2023/10/24 10:54:31;;;;;;;;;;;;;;;18.45;50.37;99638.09;4935316;27;98458;-74
2023/10/24 10:56:59;;;;;;;;;;;;;;;18.55;50.33;99642.28;4967552;27;98212;-68
2023/10/24 10:59:48;;;;;;;;;;;;;;;18.66;50.23;99643.44;4966712;27;98101;-76
2023/10/24 11:02:52;;;;;;;;;;;;;;;18.78;50.38;99648.13;4966497;27;99124;-75
2023/10/24 11:05:37;;;;;;;;;;;;;;;18.85;50.08;99645.63;4943920;27;98348;-75
2023/10/24 11:08:07;;;;;;;;;;;;;;;18.89;50.36;99641.88;4965489;27;98001;-69
2023/10/24 11:10:56;;;;;;;;;;;;;;;18.89;50.40;99636.41;4948514;27;98282;-75
2023/10/24 11:13:51;;;;;;;;;;;;;;;18.87;50.42;99630.50;4965901;27;99827;-69
2023/10/24 11:16:18;;;;;;;;;;;;;;;18.82;50.59;99629.94;4944430;28;99472;-75
2023/10/24 11:18:45;;;;;;;;;;;;;;;18.74;50.74;99631.63;4947826;28;98325;-75
2023/10/24 11:21:14;;;;;;;;;;;;;;;18.68;50.83;99632.19;4965692;27;98365;-75
2023/10/24 11:23:43;;;;;;;;;;;;;;;18.59;50.90;99629.59;4966047;27;98303;-70
2023/10/24 11:26:10;;;;;;;;;;;;;;;18.52;51.05;99618.44;4945657;27;101132;-75
2023/10/24 11:28:36;;;;;;;;;;;;;;;18.48;51.10;99620.25;4949839;27;98721;-70
2023/10/24 11:31:21;;;;;;;;;;;;;;;18.46;50.96;99628.75;4926072;28;98025;-75
2023/10/24 11:33:48;;;;;;;;;;;;;;;18.47;51.05;99626.81;4963257;27;98520;-69
2023/10/24 11:36:16;;;;;;;;;;;;;;;18.47;51.05;99635.00;4948961;27;98415;-75
2023/10/24 11:38:43;;;;;;;;;;;;;;;18.47;51.03;99640.47;4929149;28;98400;-75
2023/10/24 11:41:10;;;;;;;;;;;;;;;18.44;51.24;99650.16;4934365;28;98333;-75
2023/10/24 11:43:37;;;;;;;;;;;;;;;18.41;51.26;99653.53;4949844;27;99585;-69
2023/10/24 11:46:03;;;;;;;;;;;;;;;18.38;51.20;99659.66;4933826;27;98303;-70
2023/10/24 11:48:29;;;;;;;;;;;;;;;18.35;51.09;99649.44;4940476;27;101138;-69
2023/10/24 11:50:57;;;;;;;;;;;;;;;18.34;51.22;99645.91;4944392;27;98295;-74
2023/10/24 11:53:23;;;;;;;;;;;;;;;18.37;51.45;99636.25;4959339;27;98168;-75
2023/10/24 11:55:50;;;;;;;;;;;;;;;18.39;51.29;99626.63;4967064;27;98340;-70
2023/10/24 11:58:17;;;;;;;;;;;;;;;18.40;51.47;99620.00;4930538;27;98232;-74
2023/10/24 12:00:43;;;;;;;;;;;;;;;18.40;51.40;99614.56;4949969;27;98244;-74
2023/10/24 12:03:09;;;;;;;;;;;;;;;18.40;51.47;99621.94;4933451;27;97926;-69
2023/10/24 12:05:36;;;;;;;;;;;;;;;18.39;51.56;99636.69;4968606;27;98190;-75
2023/10/24 12:08:03;;;;;;;;;;;;;;;18.36;51.50;99634.69;4942858;28;98831;-75
2023/10/24 12:10:33;;;;;;;;;;;;;;;18.33;51.64;99630.69;4945453;27;98060;-74
2023/10/24 12:13:04;;;;;;;;;;;;;;;18.31;51.69;99624.78;4963523;27;97994;-70
2023/10/24 12:15:31;;;;;;;;;;;;;;;18.31;51.52;99621.25;4963688;27;98518;-68
2023/10/24 12:18:06;;;;;;;;;;;;;;;18.32;51.43;99622.84;4943747;28;98712;-74
2023/10/24 12:20:32;;;;;;;;;;;;;;;18.32;51.66;99610.00;4977425;27;99499;-70
2023/10/24 12:22:59;;;;;;;;;;;;;;;18.35;51.42;99603.88;4949517;27;98415;-69
2023/10/24 12:25:25;;;;;;;;;;;;;;;18.37;51.54;99592.63;4949313;27;99688;-74
2023/10/24 12:27:51;;;;;;;;;;;;;;;18.39;51.49;99590.31;4979069;27;98190;-73
2023/10/24 12:30:19;;;;;;;;;;;;;;;18.40;51.67;99581.81;4944451;27;98383;-74
2023/10/24 12:32:45;;;;;;;;;;;;;;;18.43;51.47;99574.06;4967089;27;98116;-73
2023/10/24 12:35:12;;;;;;;;;;;;;;;18.46;51.36;99562.50;4966537;27;98114;-70
2023/10/24 12:37:38;;;;;;;;;;;;;;;18.46;51.39;99555.09;4950137;27;100040;-69
2023/10/24 12:40:05;;;;;;;;;;;;;;;18.48;51.34;99547.38;4933371;27;98350;-68
2023/10/24 12:42:33;;;;;;;;;;;;;;;18.49;51.38;99538.03;4939806;27;98092;-74
2023/10/24 12:45:00;;;;;;;;;;;;;;;18.50;51.33;99536.09;4933622;27;98136;-74
2023/10/24 12:47:26;;;;;;;;;;;;;;;18.50;51.40;99522.47;4943870;27;98036;-73